Terminal Aerodrome Forecast
Issued by NWS Cleveland, OH

Home | Current Version | Previous Version | Graphics & Text | Print | Product List | Glossary Off
Versions: 1 2 3 4 5 6 7 8 9 10 11 12 13 14 15 16 17 18 19 20 21 22 23

000
FTUS41 KCLE 251100 CCA
TAFYNG
TAF COR
KYNG 251142Z 2512/2612 25005KT 3/4SM -SN BR OVC002
     FM251400 05005KT 2SM BR OVC005
     FM251900 03008KT 2SM -SN OVC006
     FM252200 04012KT 1SM -SN OVC004=

USA.gov is the U.S. government's official web portal to all federal, state and local government web resources and services.